createdAt,value
2019-02-09T00:00:13.559Z,100078.53
2019-02-09T00:04:17.772Z,100073.58
2019-02-09T00:08:22.166Z,100074.63
2019-02-09T00:12:26.324Z,100073.72
2019-02-09T00:16:30.523Z,100067.05
2019-02-09T00:20:34.681Z,100068.28
2019-02-09T00:24:38.908Z,100055.30
2019-02-09T00:28:43.144Z,100050.22
2019-02-09T00:32:47.386Z,100045.80
2019-02-09T00:36:51.635Z,100040.96
2019-02-09T00:40:55.898Z,100034.27
2019-02-09T00:45:00.194Z,100031.95
2019-02-09T00:49:04.886Z,100018.25
2019-02-09T00:53:09.096Z,100018.05
2019-02-09T00:57:13.639Z,100013.42
2019-02-09T01:01:17.881Z,100010.97
2019-02-09T01:05:25.560Z,100008.52
2019-02-09T01:09:29.758Z,100002.87
2019-02-09T01:13:33.960Z,99994.88
2019-02-09T01:17:38.114Z,99982.89
2019-02-09T01:21:42.309Z,99981.25
2019-02-09T01:25:46.518Z,99983.77
2019-02-09T01:29:50.744Z,99980.72
2019-02-09T01:33:54.950Z,99985.55
2019-02-09T01:37:59.150Z,99981.45
2019-02-09T01:42:03.335Z,99969.92
2019-02-09T01:46:07.571Z,99968.98
2019-02-09T01:50:13.100Z,99964.81
2019-02-09T01:54:17.313Z,99956.37
2019-02-09T01:58:21.489Z,99944.84
2019-02-09T02:02:25.673Z,99936.64
2019-02-09T02:06:29.885Z,99928.16
2019-02-09T02:10:36.011Z,99932.19
2019-02-09T02:14:40.210Z,99927.88
2019-02-09T02:18:44.405Z,99922.63
2019-02-09T02:22:48.586Z,99918.63
2019-02-09T02:26:52.785Z,99903.39
2019-02-09T02:30:57.016Z,99904.97
2019-02-09T02:35:01.234Z,99904.09
2019-02-09T02:39:10.132Z,99908.55
2019-02-09T02:43:14.338Z,99911.23
2019-02-09T02:47:18.866Z,99909.27
2019-02-09T02:51:23.075Z,99901.14
2019-02-09T02:55:27.924Z,99896.90
2019-02-09T02:59:32.415Z,99889.05
2019-02-09T03:03:36.629Z,99882.92
2019-02-09T03:07:40.940Z,99872.91
2019-02-09T03:11:45.142Z,99881.27
2019-02-09T03:15:49.801Z,99887.41
2019-02-09T03:19:54.010Z,99891.14
2019-02-09T03:23:58.450Z,99879.61
2019-02-09T03:28:02.664Z,99878.89
2019-02-09T03:32:10.740Z,99869.53
2019-02-09T03:36:13.498Z,99860.58
2019-02-09T03:40:19.284Z,99852.80
2019-02-09T03:44:23.491Z,99841.55
2019-02-09T03:48:27.715Z,99846.67
2019-02-09T03:52:32.163Z,99835.48
2019-02-09T03:56:36.366Z,99855.04
2019-02-09T04:00:40.567Z,99854.81
2019-02-09T04:04:44.726Z,99856.73
2019-02-09T04:08:49.023Z,99852.91
2019-02-09T04:12:53.277Z,99839.21
2019-02-09T04:16:57.793Z,99826.17
2019-02-09T04:21:03.018Z,99833.96
2019-02-09T04:25:08.349Z,99842.23
2019-02-09T04:29:12.570Z,99858.09
2019-02-09T04:33:16.814Z,99855.27
2019-02-09T04:37:21.026Z,99855.45
2019-02-09T04:41:25.225Z,99859.80
2019-02-09T04:45:29.519Z,99831.38
2019-02-09T04:49:33.686Z,99812.87
2019-02-09T04:53:38.090Z,99820.88
2019-02-09T04:57:42.265Z,99826.59
2019-02-09T05:01:46.426Z,99809.27
2019-02-09T05:05:50.634Z,99804.02
2019-02-09T05:09:54.863Z,99807.48
2019-02-09T05:13:59.133Z,99822.34
2019-02-09T05:18:03.322Z,99836.28
2019-02-09T05:22:07.520Z,99831.73
2019-02-09T05:26:11.723Z,99807.14
2019-02-09T05:30:18.508Z,99829.20
2019-02-09T05:34:22.751Z,99827.55
2019-02-09T05:38:27.332Z,99825.37
2019-02-09T05:42:31.529Z,99827.97
2019-02-09T05:46:35.763Z,99829.84
2019-02-09T05:50:39.980Z,99830.27
2019-02-09T05:54:44.510Z,99838.44
2019-02-09T05:58:48.696Z,99843.82
2019-02-09T06:02:52.883Z,99844.31
2019-02-09T06:06:57.044Z,99852.48
2019-02-09T06:11:01.452Z,99855.05
2019-02-09T06:15:06.547Z,99861.93
2019-02-09T06:19:10.727Z,99864.08
2019-02-09T06:23:14.929Z,99865.02
2019-02-09T06:27:19.193Z,99871.25
2019-02-09T06:31:23.368Z,99872.91
2019-02-09T06:35:27.829Z,99873.33
2019-02-09T06:39:32.037Z,99864.99
2019-02-09T06:43:36.247Z,99864.30
2019-02-09T06:47:40.423Z,99865.48
2019-02-09T06:51:45.230Z,99861.23
2019-02-09T06:55:49.396Z,99861.71
2019-02-09T06:59:53.607Z,99869.14
2019-02-09T07:03:58.101Z,99864.77
2019-02-09T07:08:02.296Z,99869.83
2019-02-09T07:12:06.650Z,99877.16
2019-02-09T07:16:10.818Z,99879.87
2019-02-09T07:20:15.743Z,99875.62
2019-02-09T07:24:19.910Z,99869.72
2019-02-09T07:28:24.107Z,99869.84
2019-02-09T07:32:28.300Z,99877.91
2019-02-09T07:36:32.496Z,99872.70
2019-02-09T07:40:36.709Z,99872.33
2019-02-09T07:44:40.929Z,99882.00
2019-02-09T07:48:45.129Z,99882.58
2019-02-09T07:52:49.880Z,99881.41
2019-02-09T07:56:54.091Z,99884.42
2019-02-09T08:00:58.244Z,99882.02
2019-02-09T08:05:02.448Z,99884.94
2019-02-09T08:09:11.534Z,99886.66
2019-02-09T08:13:15.697Z,99880.72
2019-02-09T08:17:19.900Z,99884.94
2019-02-09T08:21:24.164Z,99889.80
2019-02-09T08:25:30.581Z,99890.73
2019-02-09T08:29:34.803Z,99899.53
2019-02-09T08:33:39.032Z,99897.14
2019-02-09T08:37:43.304Z,99902.89
2019-02-09T08:41:47.537Z,99893.56
2019-02-09T08:45:52.099Z,99899.33
2019-02-09T08:49:56.281Z,99904.70
2019-02-09T08:54:00.479Z,99908.87
2019-02-09T08:58:05.057Z,99924.34
2019-02-09T09:02:09.270Z,99930.96
2019-02-09T09:06:13.431Z,99934.50
2019-02-09T09:10:19.275Z,99936.97
2019-02-09T09:14:23.459Z,99933.70
2019-02-09T09:18:27.666Z,99937.23
2019-02-09T09:22:31.876Z,99941.93
2019-02-09T09:26:36.058Z,99934.21
2019-02-09T09:30:40.423Z,99948.06
2019-02-09T09:34:44.630Z,99925.72
2019-02-09T09:38:48.844Z,99923.88
2019-02-09T09:42:53.408Z,99930.43
2019-02-09T09:46:57.615Z,99945.27
2019-02-09T09:51:02.314Z,99936.23
2019-02-09T09:55:07.052Z,99944.60
2019-02-09T09:59:11.220Z,99952.16
2019-02-09T10:03:15.433Z,99969.27
2019-02-09T10:07:19.638Z,99973.77
2019-02-09T10:11:23.890Z,99991.92
2019-02-09T10:15:28.586Z,99974.52
2019-02-09T10:19:32.785Z,100012.22
2019-02-09T10:23:36.998Z,100018.59
2019-02-09T10:27:41.216Z,100019.41
2019-02-09T10:31:45.413Z,100063.75
2019-02-09T10:35:49.604Z,100099.89
2019-02-09T10:39:53.828Z,100068.12
2019-02-09T10:43:58.385Z,100049.41
2019-02-09T10:48:02.769Z,100051.27
2019-02-09T10:52:06.936Z,100054.70
2019-02-09T10:56:11.246Z,100032.05
2019-02-09T11:00:19.184Z,100051.19
2019-02-09T11:04:23.397Z,100043.72
2019-02-09T11:08:27.668Z,100059.36
2019-02-09T11:12:31.894Z,100060.00
2019-02-09T11:16:36.160Z,100042.62
2019-02-09T11:20:40.374Z,100029.59
2019-02-09T11:24:44.599Z,100017.51
2019-02-09T11:28:48.882Z,100020.41
2019-02-09T11:33:01.558Z,100023.07
2019-02-09T11:36:59.364Z,100028.30
2019-02-09T11:41:03.615Z,100012.63
2019-02-09T11:45:11.718Z,100013.50
2019-02-09T11:49:15.914Z,100003.98
2019-02-09T11:53:20.124Z,100007.66
2019-02-09T11:57:24.337Z,100005.72
2019-02-09T12:01:28.545Z,99995.50
2019-02-09T12:05:32.714Z,99973.66
2019-02-09T12:09:36.936Z,99981.09
2019-02-09T12:13:41.540Z,99966.39
2019-02-09T12:17:45.928Z,99960.87
2019-02-09T12:21:50.284Z,99954.04
2019-02-09T12:25:54.894Z,99972.72
2019-02-09T12:29:59.122Z,99982.02
2019-02-09T12:34:03.296Z,99955.21
2019-02-09T12:38:08.227Z,99941.09
2019-02-09T12:42:12.435Z,99945.06
2019-02-09T12:46:16.740Z,99955.77
2019-02-09T12:50:23.723Z,99962.42
2019-02-09T12:54:27.967Z,99974.87
2019-02-09T12:58:32.182Z,99985.48
2019-02-09T13:02:36.580Z,99974.72
2019-02-09T13:06:40.792Z,99953.92
2019-02-09T13:10:45.020Z,99946.63
2019-02-09T13:14:49.255Z,99950.28
2019-02-09T13:18:53.418Z,99944.33
2019-02-09T13:22:58.631Z,99950.43
2019-02-09T13:27:02.833Z,99964.27
2019-02-09T13:31:07.078Z,99955.58
2019-02-09T13:35:11.967Z,99961.29
2019-02-09T13:39:16.134Z,99954.31
2019-02-09T13:43:20.307Z,99952.17
2019-02-09T13:47:24.926Z,99935.33
2019-02-09T13:51:29.140Z,99933.69
2019-02-09T13:55:33.329Z,99931.19
2019-02-09T13:59:37.591Z,99911.71
2019-02-09T14:03:46.962Z,99913.20
2019-02-09T14:07:48.064Z,99910.28
2019-02-09T14:11:53.408Z,99904.28
2019-02-09T14:15:57.770Z,99906.89
2019-02-09T14:20:02.486Z,99916.52
2019-02-09T14:24:06.813Z,99916.99
2019-02-09T14:28:15.266Z,99920.95
2019-02-09T14:32:19.698Z,99914.88
2019-02-09T14:36:23.914Z,99904.04
2019-02-09T14:40:30.325Z,99921.56
2019-02-09T14:44:34.559Z,99929.04
2019-02-09T14:48:40.056Z,99914.30
2019-02-09T14:52:44.264Z,99942.60
2019-02-09T14:56:48.498Z,99956.19
2019-02-09T15:00:54.002Z,99963.20
2019-02-09T15:04:58.368Z,99973.28
2019-02-09T15:09:03.463Z,99975.93
2019-02-09T15:13:09.305Z,99990.88
2019-02-09T15:17:13.524Z,99990.09
2019-02-09T15:21:18.584Z,99987.88
2019-02-09T15:25:22.815Z,99965.99
2019-02-09T15:29:27.031Z,99984.36
2019-02-09T15:33:31.238Z,99979.59
2019-02-09T15:37:35.471Z,99995.67
2019-02-09T15:41:39.767Z,99998.25
2019-02-09T15:45:44.988Z,99999.46
2019-02-09T15:49:49.205Z,100014.59
2019-02-09T15:53:53.414Z,100004.09
2019-02-09T15:57:57.639Z,100020.16
2019-02-09T16:02:01.864Z,100035.28
2019-02-09T16:06:06.451Z,100019.39
2019-02-09T16:10:11.157Z,100016.51
2019-02-09T16:14:15.385Z,99999.75
2019-02-09T16:18:19.562Z,100013.59
2019-02-09T16:22:23.775Z,100005.55
2019-02-09T16:26:27.999Z,99997.94
2019-02-09T16:30:32.170Z,100010.89
2019-02-09T16:34:36.803Z,100024.80
2019-02-09T16:38:40.992Z,100036.18
2019-02-09T16:42:56.568Z,100045.41
2019-02-09T16:47:04.069Z,100035.34
2019-02-09T16:51:11.205Z,100030.39
2019-02-09T16:55:16.413Z,100041.47
2019-02-09T16:59:20.903Z,100038.72
2019-02-09T17:03:26.841Z,100041.21
2019-02-09T17:07:31.036Z,100046.27
2019-02-09T17:11:35.815Z,100059.67
2019-02-09T17:15:40.033Z,100058.15
2019-02-09T17:19:44.739Z,100058.88
2019-02-09T17:23:50.437Z,100061.41
2019-02-09T17:27:55.597Z,100069.20
2019-02-09T17:31:59.844Z,100070.08
2019-02-09T17:36:06.314Z,100070.86
2019-02-09T17:40:14.057Z,100072.55
2019-02-09T17:44:18.278Z,100078.60
2019-02-09T17:48:22.575Z,100080.87
2019-02-09T17:52:28.404Z,100075.65
2019-02-09T17:56:34.645Z,100084.78
2019-02-09T18:00:46.073Z,100090.83
2019-02-09T18:04:50.594Z,100095.67
2019-02-09T18:08:54.806Z,100095.23
2019-02-09T18:12:59.003Z,100098.14
2019-02-09T18:17:03.629Z,100094.13
2019-02-09T18:21:07.854Z,100107.91
2019-02-09T18:25:14.039Z,100086.32
2019-02-09T18:29:18.249Z,100090.03
2019-02-09T18:33:22.425Z,100074.66
2019-02-09T18:37:28.655Z,100087.28
2019-02-09T18:41:33.917Z,100084.19
2019-02-09T18:45:40.898Z,100081.95
2019-02-09T18:49:45.156Z,100095.84
2019-02-09T18:53:49.348Z,100085.44
2019-02-09T18:57:53.871Z,100089.79
2019-02-09T19:01:58.125Z,100094.25
2019-02-09T19:06:02.511Z,100092.55
2019-02-09T19:10:10.094Z,100098.64
2019-02-09T19:14:14.682Z,100104.98
2019-02-09T19:18:18.872Z,100095.30
2019-02-09T19:22:27.378Z,100104.93
2019-02-09T19:26:31.956Z,100110.73
2019-02-09T19:30:36.367Z,100116.11
2019-02-09T19:34:40.574Z,100116.05
2019-02-09T19:38:44.795Z,100124.75
2019-02-09T19:42:49.546Z,100120.89
2019-02-09T19:46:53.763Z,100120.45
2019-02-09T19:50:57.957Z,100119.05
2019-02-09T19:55:02.908Z,100114.59
2019-02-09T19:59:07.113Z,100110.05
2019-02-09T20:03:11.469Z,100123.53
2019-02-09T20:07:17.074Z,100118.70
2019-02-09T20:11:21.277Z,100111.69
2019-02-09T20:15:25.731Z,100127.97
2019-02-09T20:19:30.020Z,100128.58
2019-02-09T20:23:34.147Z,100137.55
2019-02-09T20:27:38.427Z,100132.45
2019-02-09T20:31:42.632Z,100133.27
2019-02-09T20:35:49.172Z,100138.87
2019-02-09T20:39:53.363Z,100144.89
2019-02-09T20:43:57.612Z,100146.09
2019-02-09T20:48:01.833Z,100125.55
2019-02-09T20:52:06.209Z,100140.59
2019-02-09T20:56:11.631Z,100118.87
2019-02-09T21:00:18.624Z,100140.44
2019-02-09T21:04:23.429Z,100115.93
2019-02-09T21:08:27.617Z,100112.61
2019-02-09T21:12:32.052Z,100138.13
2019-02-09T21:16:36.250Z,100141.83
2019-02-09T21:20:40.442Z,100149.20
2019-02-09T21:24:47.339Z,100129.27
2019-02-09T21:28:51.554Z,100125.31
2019-02-09T21:32:56.143Z,100128.50
2019-02-09T21:37:00.325Z,100126.00
2019-02-09T21:41:04.753Z,100123.42
2019-02-09T21:45:10.594Z,100122.09
2019-02-09T21:49:15.247Z,100120.09
2019-02-09T21:53:19.467Z,100122.70
2019-02-09T21:57:25.471Z,100119.75
2019-02-09T22:01:29.704Z,100128.93
2019-02-09T22:05:36.158Z,100130.25
2019-02-09T22:09:40.322Z,100121.05
2019-02-09T22:13:44.590Z,100121.93
2019-02-09T22:17:48.738Z,100115.47
2019-02-09T22:21:53.462Z,100110.81
2019-02-09T22:25:57.905Z,100110.04
2019-02-09T22:30:02.220Z,100104.40
2019-02-09T22:34:06.789Z,100104.34
2019-02-09T22:38:11.100Z,100120.31
2019-02-09T22:42:15.496Z,100116.51
2019-02-09T22:46:19.671Z,100114.83
2019-02-09T22:50:26.892Z,100133.19
2019-02-09T22:54:31.102Z,100134.48
2019-02-09T22:58:35.496Z,100132.25
2019-02-09T23:02:39.717Z,100121.91
2019-02-09T23:06:57.546Z,100137.05
2019-02-09T23:11:01.796Z,100131.56
2019-02-09T23:15:06.887Z,100142.63
2019-02-09T23:19:11.129Z,100142.83
2019-02-09T23:23:15.672Z,100139.49
2019-02-09T23:27:19.884Z,100153.14
2019-02-09T23:31:24.409Z,100145.59
2019-02-09T23:35:28.714Z,100132.81
2019-02-09T23:39:32.948Z,100145.16
2019-02-09T23:43:37.634Z,100156.83
2019-02-09T23:47:43.633Z,100159.73
2019-02-09T23:51:47.988Z,100154.33
2019-02-09T23:55:54.626Z,100150.25
2019-02-09T23:59:58.883Z,100155.70
